Time;durP1;ratioP1;P1;durP2;ratioP2;P2;SDS_P1;SDS_P2;PMS_P1;PMS_P2;Temp;Humidity;BMP_temperature;BMP_pressure;BME280_temperature;BME280_humidity;BME280_pressure;Samples;Min_cycle;Max_cycle;Signal;HPM_P1;HPM_P2
2024/03/28 00:01:37;;;;;;;1.33;1.17;;;9.30;1.00;;;;;;5139847;27;38710;-80
2024/03/28 00:04:05;;;;;;;2.47;1.60;;;9.20;1.00;;;;;;5128744;27;40014;-80
2024/03/28 00:06:49;;;;;;;2.20;1.40;;;9.20;1.00;;;;;;5137773;27;38009;-80
2024/03/28 00:09:23;;;;;;;2.03;1.33;;;9.20;1.00;;;;;;5130025;27;37627;-79
2024/03/28 00:12:07;;;;;;;2.97;1.23;;;9.10;1.00;;;;;;5121359;27;38161;-80
2024/03/28 00:14:42;;;;;;;2.70;1.43;;;9.10;1.00;;;;;;5116146;27;48846;-80
2024/03/28 00:17:22;;;;;;;2.23;1.33;;;9.10;1.00;;;;;;5122013;27;38311;-80
2024/03/28 00:20:08;;;;;;;3.07;1.40;;;9.10;1.00;;;;;;5115926;27;36429;-81
2024/03/28 00:22:46;;;;;;;1.37;1.27;;;9.00;1.00;;;;;;5119919;27;48514;-80
2024/03/28 00:25:17;;;;;;;2.93;1.20;;;9.00;1.00;;;;;;5135448;27;39722;-79
2024/03/28 00:27:52;;;;;;;1.50;1.30;;;8.90;1.00;;;;;;5133033;27;38474;-79
2024/03/28 00:30:23;;;;;;;2.07;1.20;;;8.90;1.00;;;;;;5093751;27;38393;-79
2024/03/28 00:32:56;;;;;;;1.73;1.00;;;8.90;1.00;;;;;;5122157;27;39934;-79
2024/03/28 00:35:41;;;;;;;1.53;1.10;;;8.90;1.00;;;;;;5129709;27;39809;-81
2024/03/28 00:38:10;;;;;;;1.37;1.10;;;8.90;1.00;;;;;;5132506;27;36788;-80
2024/03/28 00:41:06;;;;;;;1.27;1.17;;;8.90;1.00;;;;;;5140127;27;38456;-81
2024/03/28 00:43:34;;;;;;;2.77;1.40;;;8.80;1.00;;;;;;5125158;27;48336;-80
2024/03/28 00:46:04;;;;;;;3.27;1.30;;;8.80;1.00;;;;;;5146489;27;38556;-79
2024/03/28 00:48:32;;;;;;;3.20;1.53;;;8.80;1.00;;;;;;5128902;27;49210;-80
2024/03/28 00:51:03;;;;;;;1.73;1.30;;;8.80;1.00;;;;;;5117942;27;36468;-79
2024/03/28 00:53:42;;;;;;;2.13;1.20;;;8.70;1.00;;;;;;5146748;27;47987;-79
2024/03/28 00:56:16;;;;;;;2.53;1.10;;;8.70;1.00;;;;;;5137922;27;38881;-79
2024/03/28 00:58:56;;;;;;;1.77;1.23;;;8.60;1.00;;;;;;5126601;27;37286;-80
2024/03/28 01:01:39;;;;;;;0.97;0.90;;;8.50;1.00;;;;;;5136442;27;37469;-79
2024/03/28 01:04:15;;;;;;;;;;;8.50;1.00;;;;;;5146286;27;40283;-80
2024/03/28 01:06:49;;;;;;;1.97;1.10;;;8.50;1.00;;;;;;5129543;27;39303;-79
2024/03/28 01:09:28;;;;;;;3.93;1.37;;;8.50;1.00;;;;;;5120316;27;39488;-81
2024/03/28 01:12:00;;;;;;;1.67;1.20;;;8.50;1.00;;;;;;5131609;27;37400;-81
2024/03/28 01:14:31;;;;;;;2.08;1.38;;;8.50;1.00;;;;;;5122267;27;39401;-80
2024/03/28 01:17:02;;;;;;;0.97;0.97;;;8.50;1.00;;;;;;5135547;27;38810;-81
2024/03/28 01:19:30;;;;;;;3.30;1.50;;;8.40;1.00;;;;;;5148511;27;50070;-80
2024/03/28 01:21:59;;;;;;;1.63;1.17;;;8.50;1.00;;;;;;5136958;27;38796;-80
2024/03/28 01:24:30;;;;;;;1.77;1.20;;;8.40;1.00;;;;;;5131680;28;38163;-79
2024/03/28 01:27:00;;;;;;;1.80;1.30;;;8.40;1.00;;;;;;5129921;27;37853;-80
2024/03/28 01:29:37;;;;;;;1.20;1.00;;;8.40;1.00;;;;;;5134389;27;38951;-79
2024/03/28 01:32:12;;;;;;;1.50;1.40;;;8.40;1.00;;;;;;5127601;27;36495;-80
2024/03/28 01:34:41;;;;;;;3.33;1.67;;;8.30;1.00;;;;;;5138592;27;40691;-81
2024/03/28 01:37:28;;;;;;;1.33;1.23;;;8.30;1.00;;;;;;5104740;27;38758;-80
2024/03/28 01:39:58;;;;;;;5.00;1.97;;;8.30;1.00;;;;;;5133928;27;38368;-81
2024/03/28 01:42:31;;;;;;;3.23;1.93;;;8.30;1.00;;;;;;5122446;27;37560;-79
2024/03/28 01:44:58;;;;;;;4.70;1.90;;;8.20;1.00;;;;;;5107275;27;39714;-79
2024/03/28 01:47:31;;;;;;;2.67;1.50;;;8.20;1.00;;;;;;5077866;27;37572;-80
2024/03/28 01:50:00;;;;;;;3.87;1.80;;;8.10;1.00;;;;;;5133589;27;38531;-80
2024/03/28 01:52:28;;;;;;;2.53;1.80;;;8.00;1.00;;;;;;5105145;28;37479;-80
2024/03/28 01:55:03;;;;;;;1.90;1.77;;;7.90;1.00;;;;;;5119608;27;38797;-80
2024/03/28 01:57:32;;;;;;;1.87;1.70;;;7.90;1.00;;;;;;5127717;27;38421;-78
2024/03/28 02:00:08;;;;;;;1.70;1.60;;;7.80;1.00;;;;;;5153093;27;39241;-80
2024/03/28 02:02:35;;;;;;;2.53;2.13;;;7.80;1.00;;;;;;5714640;22;37474;-79
2024/03/28 02:05:05;;;;;;;2.30;2.10;;;7.80;1.00;;;;;;5127938;27;37563;-80
2024/03/28 02:07:35;;;;;;;3.63;2.40;;;7.90;1.00;;;;;;5131690;27;48436;-80
2024/03/28 02:10:08;;;;;;;4.13;2.10;;;7.90;1.00;;;;;;5131247;27;39841;-80
2024/03/28 02:12:36;;;;;;;3.33;2.10;;;7.90;1.00;;;;;;5132271;27;50126;-80
2024/03/28 02:15:04;;;;;;;3.43;1.87;;;7.90;1.00;;;;;;5130126;27;40423;-79
2024/03/28 02:17:32;;;;;;;1.73;1.63;;;8.00;1.00;;;;;;5137796;27;48050;-79
2024/03/28 02:20:00;;;;;;;4.13;2.10;;;8.00;1.00;;;;;;5123432;27;34721;-79
2024/03/28 02:22:27;;;;;;;3.27;2.30;;;8.00;1.00;;;;;;5115424;28;35990;-80
2024/03/28 02:25:03;;;;;;;4.17;2.37;;;8.10;1.00;;;;;;5126746;27;38786;-79
2024/03/28 02:27:32;;;;;;;3.07;2.00;;;8.10;1.00;;;;;;5124540;27;48099;-79
2024/03/28 02:30:14;;;;;;;3.30;2.23;;;8.10;1.00;;;;;;5133434;27;37892;-78
2024/03/28 02:32:52;;;;;;;4.10;2.30;;;8.10;1.00;;;;;;5124427;27;49584;-79
2024/03/28 02:35:21;;;;;;;3.30;1.97;;;8.10;1.00;;;;;;5125599;27;38235;-80
2024/03/28 02:37:53;;;;;;;2.50;2.30;;;8.10;1.00;;;;;;5128647;27;38105;-80
2024/03/28 02:40:27;;;;;;;3.95;2.70;;;8.00;1.00;;;;;;5115465;27;38082;-79
2024/03/28 02:42:55;;;;;;;3.40;2.50;;;8.00;1.00;;;;;;5120365;27;38011;-79
2024/03/28 02:45:38;;;;;;;5.60;2.67;;;7.90;1.00;;;;;;5118594;27;39458;-79
2024/03/28 02:48:10;;;;;;;3.33;2.63;;;7.90;1.00;;;;;;5120192;27;37008;-79
2024/03/28 02:50:50;;;;;;;3.70;2.60;;;7.90;1.00;;;;;;5126610;28;38247;-79
2024/03/28 02:53:28;;;;;;;4.00;2.57;;;7.70;1.00;;;;;;5106128;27;38638;-79
2024/03/28 02:56:03;;;;;;;5.30;2.83;;;7.80;1.00;;;;;;5132761;27;38886;-81
2024/03/28 02:58:39;;;;;;;3.97;2.67;;;7.80;1.00;;;;;;5128153;28;48400;-79
2024/03/28 03:01:08;;;;;;;3.07;2.20;;;7.90;1.00;;;;;;5124048;27;39119;-79
2024/03/28 03:03:36;;;;;;;3.73;2.17;;;7.90;1.00;;;;;;5129142;27;38684;-79
2024/03/28 03:06:04;;;;;;;3.07;2.10;;;7.90;1.00;;;;;;5124978;27;38870;-78
2024/03/28 03:08:31;;;;;;;3.33;2.20;;;8.00;1.00;;;;;;5119346;27;39442;-78
2024/03/28 03:10:58;;;;;;;2.10;1.90;;;8.00;1.00;;;;;;5129859;27;36627;-80
2024/03/28 03:13:25;;;;;;;3.93;2.13;;;8.00;1.00;;;;;;5130096;27;37938;-79
2024/03/28 03:15:55;;;;;;;4.27;2.30;;;8.10;1.00;;;;;;5131144;27;40018;-80
2024/03/28 03:18:26;;;;;;;3.17;1.87;;;8.10;1.00;;;;;;5130247;27;40733;-80
2024/03/28 03:21:04;;;;;;;3.07;2.20;;;8.10;1.00;;;;;;5125994;27;38897;-79
2024/03/28 03:23:46;;;;;;;3.17;1.77;;;8.10;1.00;;;;;;5133017;27;47800;-79
2024/03/28 03:26:19;;;;;;;4.00;2.00;;;8.10;1.00;;;;;;5123446;27;40826;-79
2024/03/28 03:34:37;;;;;;;3.17;2.10;;;8.00;1.00;;;;;;5123971;27;38127;-79
2024/03/28 03:37:09;;;;;;;2.77;1.77;;;8.00;1.00;;;;;;5125949;27;40276;-78
2024/03/28 03:39:37;;;;;;;2.57;1.90;;;8.00;1.00;;;;;;5119829;27;40078;-79
2024/03/28 03:42:04;;;;;;;3.30;2.07;;;8.00;1.00;;;;;;5119125;27;41166;-80
2024/03/28 03:44:31;;;;;;;3.63;1.83;;;8.00;1.00;;;;;;5125302;27;38188;-79
2024/03/28 03:46:58;;;;;;;2.17;1.60;;;8.00;1.00;;;;;;5124844;27;40029;-80
2024/03/28 03:49:25;;;;;;;2.23;1.63;;;8.10;1.00;;;;;;5120015;27;38746;-79
2024/03/28 03:51:53;;;;;;;2.53;1.80;;;8.10;1.00;;;;;;5125275;27;38704;-79
2024/03/28 03:54:19;;;;;;;3.97;1.97;;;8.20;1.00;;;;;;5125750;27;37150;-79
2024/03/28 03:56:47;;;;;;;4.00;2.10;;;8.20;1.00;;;;;;5122797;27;38334;-79
2024/03/28 03:59:14;;;;;;;2.57;1.90;;;8.20;1.00;;;;;;5122977;27;38533;-80
2024/03/28 04:01:41;;;;;;;2.00;1.70;;;8.20;1.00;;;;;;5118994;27;38204;-80
2024/03/28 04:04:10;;;;;;;4.00;2.30;;;8.20;1.00;;;;;;5102944;27;36454;-79
2024/03/28 04:06:38;;;;;;;2.03;1.80;;;8.10;1.00;;;;;;5106871;27;39664;-79
2024/03/28 04:09:11;;;;;;;3.50;1.80;;;8.10;1.00;;;;;;5108219;27;39198;-80
2024/03/28 04:11:39;;;;;;;3.20;2.10;;;8.10;1.00;;;;;;5111535;27;38827;-78
2024/03/28 04:14:07;;;;;;;3.10;2.00;;;8.10;1.00;;;;;;5104108;27;36533;-78
2024/03/28 04:16:38;;;;;;;2.63;1.93;;;8.20;1.00;;;;;;5112259;27;37658;-80
2024/03/28 04:19:07;;;;;;;2.53;2.00;;;8.20;1.00;;;;;;5124609;27;39621;-79
2024/03/28 04:21:44;;;;;;;3.90;2.37;;;8.10;1.00;;;;;;5121091;27;37730;-79
2024/03/28 04:24:12;;;;;;;4.70;2.20;;;8.10;1.00;;;;;;5115404;27;38746;-79
2024/03/28 04:26:39;;;;;;;2.50;2.30;;;8.10;1.00;;;;;;5106258;28;40690;-79
2024/03/28 04:29:06;;;;;;;5.60;1.90;;;8.00;1.00;;;;;;5125166;27;39223;-79
2024/03/28 04:31:32;;;;;;;2.70;2.20;;;8.10;1.00;;;;;;5121727;28;37833;-80
2024/03/28 04:33:59;;;;;;;5.13;2.47;;;8.00;1.00;;;;;;5121724;27;36600;-78
2024/03/28 04:36:30;;;;;;;3.27;1.90;;;8.00;1.00;;;;;;5130073;27;37971;-78
2024/03/28 04:38:57;;;;;;;2.93;2.03;;;8.00;1.00;;;;;;5136215;27;37938;-80
2024/03/28 04:41:25;;;;;;;2.13;1.87;;;8.00;1.00;;;;;;5134150;27;36750;-79
2024/03/28 04:44:08;;;;;;;2.73;2.33;;;8.00;1.00;;;;;;5127119;27;37527;-80
2024/03/28 04:46:35;;;;;;;3.05;1.70;;;8.00;1.00;;;;;;5121690;27;48623;-80
2024/03/28 04:49:03;;;;;;;3.57;2.27;;;8.00;1.00;;;;;;5122333;27;37874;-79
2024/03/28 04:51:33;;;;;;;3.43;2.30;;;8.00;1.00;;;;;;5129429;27;47636;-78
2024/03/28 04:53:59;;;;;;;2.87;2.33;;;7.90;1.00;;;;;;5125263;27;36692;-79
2024/03/28 04:56:26;;;;;;;3.00;2.33;;;7.90;1.00;;;;;;5127224;27;40212;-79
2024/03/28 04:58:52;;;;;;;4.20;2.60;;;7.90;1.00;;;;;;5131668;27;39915;-79
2024/03/28 05:01:25;;;;;;;2.33;2.00;;;7.90;1.00;;;;;;5119663;27;37969;-80
2024/03/28 05:03:55;;;;;;;2.50;1.93;;;7.90;1.00;;;;;;5128187;27;38476;-79
2024/03/28 05:06:21;;;;;;;3.90;2.20;;;7.90;1.00;;;;;;5125537;27;38649;-80
2024/03/28 05:08:58;;;;;;;4.10;2.20;;;7.90;1.00;;;;;;5127243;27;39001;-80
2024/03/28 05:11:25;;;;;;;2.70;2.50;;;7.90;1.00;;;;;;5136660;27;37139;-79
2024/03/28 05:13:51;;;;;;;4.40;2.57;;;7.90;1.00;;;;;;5135792;27;38325;-78
2024/03/28 05:16:18;;;;;;;3.37;2.20;;;7.90;1.00;;;;;;5130869;27;38079;-79
2024/03/28 05:18:46;;;;;;;2.83;2.30;;;7.90;1.00;;;;;;5132456;27;38110;-79
2024/03/28 05:21:14;;;;;;;2.73;2.43;;;7.90;1.00;;;;;;5127790;27;37727;-79
2024/03/28 05:23:41;;;;;;;2.73;2.30;;;7.90;1.00;;;;;;5123205;27;37017;-79
2024/03/28 05:26:18;;;;;;;4.27;2.10;;;7.90;1.00;;;;;;5135711;27;37975;-80
2024/03/28 05:28:44;;;;;;;2.87;2.20;;;7.80;1.00;;;;;;5129184;28;37488;-79
2024/03/28 05:31:17;;;;;;;3.17;2.40;;;7.80;1.00;;;;;;5126894;27;36248;-79
2024/03/28 05:33:43;;;;;;;;;;;7.80;1.00;;;;;;5133185;27;37324;-79
2024/03/28 05:36:11;;;;;;;3.60;2.37;;;7.90;1.00;;;;;;5126279;27;39440;-79
2024/03/28 05:38:37;;;;;;;3.07;2.50;;;7.90;1.00;;;;;;5126050;27;37934;-79
2024/03/28 05:41:04;;;;;;;3.30;2.53;;;7.90;1.00;;;;;;5130013;27;38123;-80
2024/03/28 05:43:30;;;;;;;2.70;2.37;;;7.90;1.00;;;;;;5131017;27;38711;-80
2024/03/28 05:45:59;;;;;;;3.30;2.30;;;8.00;1.00;;;;;;5130743;27;38829;-80
2024/03/28 05:48:26;;;;;;;5.30;2.37;;;8.00;1.00;;;;;;5126170;27;39120;-79
2024/03/28 05:50:54;;;;;;;4.10;2.10;;;8.00;1.00;;;;;;5134643;27;37860;-80
2024/03/28 05:53:23;;;;;;;2.90;2.30;;;8.10;1.00;;;;;;5131165;27;38643;-78
2024/03/28 05:55:51;;;;;;;5.57;2.40;;;8.10;1.00;;;;;;5122087;28;38656;-77
2024/03/28 05:58:23;;;;;;;3.03;1.97;;;8.10;1.00;;;;;;5124350;27;38519;-80
2024/03/28 06:00:51;;;;;;;3.10;2.17;;;8.20;1.00;;;;;;5130669;27;39362;-79
2024/03/28 06:03:18;;;;;;;8.80;2.43;;;8.20;1.00;;;;;;5128696;27;37423;-78
2024/03/28 06:05:49;;;;;;;5.07;1.93;;;8.20;1.00;;;;;;5123916;27;39560;-79
2024/03/28 06:08:16;;;;;;;2.73;2.20;;;8.20;1.00;;;;;;5130833;27;39078;-80
2024/03/28 06:10:47;;;;;;;4.10;2.30;;;8.20;1.00;;;;;;5125996;27;36677;-78
2024/03/28 06:13:15;;;;;;;5.60;2.30;;;8.20;1.00;;;;;;5125000;27;40070;-78
2024/03/28 06:15:42;;;;;;;3.13;2.13;;;8.20;1.00;;;;;;5127599;27;40067;-78
2024/03/28 06:18:10;;;;;;;3.77;2.60;;;8.20;1.00;;;;;;5129691;27;39982;-79
2024/03/28 06:20:40;;;;;;;2.00;1.80;;;8.30;1.00;;;;;;5133336;27;39200;-79
2024/03/28 06:23:48;;;;;;;4.53;2.13;;;8.30;1.00;;;;;;5105977;27;37391;-80
2024/03/28 06:26:16;;;;;;;3.63;2.00;;;8.30;1.00;;;;;;5118711;27;39472;-79
2024/03/28 06:29:02;;;;;;;1.83;1.70;;;8.30;1.00;;;;;;5116706;28;40464;-80
2024/03/28 06:31:34;;;;;;;3.37;1.60;;;8.30;1.00;;;;;;5117334;27;49433;-80
2024/03/28 06:34:04;;;;;;;3.17;2.00;;;8.30;1.00;;;;;;5126079;27;38478;-79
2024/03/28 06:36:33;;;;;;;3.93;1.90;;;8.30;1.00;;;;;;5128099;27;47854;-80
2024/03/28 06:39:03;;;;;;;2.30;1.80;;;8.30;1.00;;;;;;5138220;27;39770;-79
2024/03/28 06:41:31;;;;;;;2.90;1.80;;;8.30;1.00;;;;;;5129603;27;48993;-78
2024/03/28 06:44:00;;;;;;;4.40;1.90;;;8.30;1.00;;;;;;5139524;27;39535;-79
2024/03/28 07:13:58;;;;;;;3.40;0.97;;;7.50;70.40;;;;;;5116942;22;20037;-77
2024/03/28 07:16:24;;;;;;;1.53;0.70;;;7.40;59.60;;;;;;5089564;28;37256;-77
2024/03/28 07:18:53;;;;;;;1.13;0.80;;;7.30;66.40;;;;;;5089501;28;38023;-76
2024/03/28 07:21:19;;;;;;;2.37;0.67;;;7.20;73.50;;;;;;5088240;28;37615;-78
2024/03/28 07:23:46;;;;;;;2.50;0.77;;;7.20;90.30;;;;;;5089082;28;38034;-77
2024/03/28 07:26:12;;;;;;;1.60;0.80;;;7.20;99.10;;;;;;5087543;27;35980;-77
2024/03/28 07:28:39;;;;;;;0.80;0.80;;;7.10;99.90;;;;;;5093928;28;37337;-76
2024/03/28 07:31:05;;;;;;;1.63;1.00;;;7.10;99.90;;;;;;5088913;27;37297;-77
2024/03/28 07:33:31;;;;;;;1.27;0.90;;;7.10;99.90;;;;;;5092705;27;37859;-76
2024/03/28 07:35:57;;;;;;;2.87;1.50;;;7.10;99.90;;;;;;5086838;28;36123;-77
2024/03/28 07:38:23;;;;;;;4.60;0.93;;;7.10;99.90;;;;;;5088583;27;40193;-76
2024/03/28 07:40:50;;;;;;;2.80;1.00;;;7.10;99.90;;;;;;5086320;27;38381;-76
2024/03/28 07:43:17;;;;;;;4.57;1.10;;;7.10;99.90;;;;;;5082556;28;36881;-75
2024/03/28 07:45:44;;;;;;;1.33;1.20;;;7.10;99.90;;;;;;5086548;27;38840;-76
2024/03/28 07:48:13;;;;;;;2.50;1.30;;;7.10;99.90;;;;;;5088372;28;38047;-76
2024/03/28 07:50:39;;;;;;;1.93;1.10;;;7.10;99.90;;;;;;5104601;27;37018;-75
2024/03/28 07:53:05;;;;;;;1.73;1.07;;;7.10;99.90;;;;;;5097798;27;37320;-75
2024/03/28 07:55:31;;;;;;;1.90;1.17;;;7.10;99.90;;;;;;5111169;27;35968;-75
2024/03/28 07:57:57;;;;;;;2.47;1.10;;;7.10;99.90;;;;;;5086124;28;39065;-74
2024/03/28 08:00:24;;;;;;;2.57;1.50;;;7.10;99.90;;;;;;5087196;27;39101;-75
2024/03/28 08:02:50;;;;;;;1.40;1.17;;;7.10;99.90;;;;;;5094797;28;36402;-74
2024/03/28 08:05:20;;;;;;;1.40;1.30;;;7.10;99.90;;;;;;5083051;27;36895;-74
2024/03/28 08:07:46;;;;;;;1.67;1.30;;;7.10;99.90;;;;;;5101332;28;40589;-75
2024/03/28 08:10:12;;;;;;;2.23;1.30;;;7.10;99.90;;;;;;5097451;27;38711;-74
2024/03/28 08:12:39;;;;;;;1.63;1.37;;;7.10;99.90;;;;;;5094281;28;39360;-76
2024/03/28 08:15:06;;;;;;;1.57;1.30;;;7.20;99.90;;;;;;5090835;28;39022;-74
2024/03/28 08:17:33;;;;;;;3.20;1.70;;;7.20;99.90;;;;;;5090267;28;38026;-74
2024/03/28 08:20:13;;;;;;;3.27;1.70;;;7.20;99.90;;;;;;5090965;28;39768;-74
2024/03/28 08:22:39;;;;;;;4.67;1.77;;;7.20;99.90;;;;;;5087399;28;48630;-74
2024/03/28 08:25:06;;;;;;;6.43;1.63;;;7.20;99.90;;;;;;5090897;27;37166;-73
2024/03/28 08:27:32;;;;;;;2.10;1.40;;;7.10;99.90;;;;;;5086223;28;37829;-74
2024/03/28 08:29:59;;;;;;;1.80;1.40;;;7.10;99.90;;;;;;5092231;27;38551;-74
2024/03/28 08:32:26;;;;;;;4.43;1.50;;;7.20;99.90;;;;;;5095747;27;37221;-73
2024/03/28 08:34:52;;;;;;;2.43;1.80;;;7.20;99.90;;;;;;5093531;28;35944;-74
2024/03/28 08:37:19;;;;;;;3.60;2.10;;;7.30;99.90;;;;;;5097375;27;39673;-73
2024/03/28 08:39:45;;;;;;;3.70;2.47;;;7.20;99.90;;;;;;5092772;28;37163;-74
2024/03/28 08:42:11;;;;;;;3.07;1.70;;;7.30;99.90;;;;;;5092359;27;36918;-74
2024/03/28 08:44:37;;;;;;;4.40;2.37;;;7.30;99.90;;;;;;5086430;28;36307;-74
2024/03/28 08:47:04;;;;;;;2.07;1.73;;;7.30;99.90;;;;;;5088925;28;37928;-74
2024/03/28 08:49:30;;;;;;;4.50;2.20;;;7.40;99.90;;;;;;5087667;28;38233;-74
2024/03/28 08:51:56;;;;;;;2.67;1.70;;;7.40;99.90;;;;;;5105967;27;36499;-73
2024/03/28 08:54:24;;;;;;;2.23;1.70;;;7.40;99.90;;;;;;5087325;27;37077;-73
2024/03/28 08:56:50;;;;;;;3.40;1.70;;;7.40;99.90;;;;;;5095277;27;38992;-74
2024/03/28 08:59:20;;;;;;;2.23;1.80;;;7.50;99.90;;;;;;5103107;27;39341;-73
2024/03/28 09:01:46;;;;;;;1.90;1.80;;;7.50;99.90;;;;;;5097705;27;37948;-74
2024/03/28 09:04:19;;;;;;;2.70;2.37;;;7.50;99.90;;;;;;5106178;27;35903;-74
2024/03/28 09:06:46;;;;;;;2.30;2.00;;;7.60;99.90;;;;;;5091380;28;37717;-73
2024/03/28 09:09:14;;;;;;;5.00;2.80;;;7.60;99.90;;;;;;5099707;27;37047;-74
2024/03/28 09:11:43;;;;;;;4.13;2.50;;;7.60;99.90;;;;;;5088368;28;37573;-73
2024/03/28 09:14:09;;;;;;;3.20;2.20;;;7.70;99.90;;;;;;5092545;27;36055;-73
2024/03/28 09:16:35;;;;;;;3.93;2.47;;;7.70;99.90;;;;;;5090403;28;39301;-74
2024/03/28 09:19:02;;;;;;;4.33;3.10;;;7.80;99.90;;;;;;5099798;27;37163;-74
2024/03/28 09:21:28;;;;;;;3.20;2.90;;;7.90;99.90;;;;;;5094029;27;38761;-75
2024/03/28 09:23:55;;;;;;;3.20;2.90;;;8.00;99.90;;;;;;5085502;28;37472;-74
2024/03/28 09:26:21;;;;;;;5.00;2.37;;;8.00;99.90;;;;;;5082365;27;37668;-74
2024/03/28 09:28:55;;;;;;;5.50;2.90;;;8.10;99.90;;;;;;5088529;27;38204;-74
2024/03/28 09:31:21;;;;;;;2.97;2.40;;;8.20;99.90;;;;;;5075438;27;37094;-74
2024/03/28 09:33:47;;;;;;;3.33;2.80;;;8.30;99.90;;;;;;5081361;27;37088;-74
2024/03/28 09:36:15;;;;;;;5.47;2.30;;;8.50;99.90;;;;;;5082546;27;39589;-74
2024/03/28 09:38:44;;;;;;;5.47;2.30;;;8.60;99.90;;;;;;5089011;27;39734;-74
2024/03/28 09:41:23;;;;;;;7.20;1.90;;;8.80;99.90;;;;;;5096029;27;37330;-75
2024/03/28 09:43:49;;;;;;;7.97;2.00;;;8.90;99.90;;;;;;5084103;27;37014;-74
2024/03/28 09:46:17;;;;;;;9.80;2.33;;;8.90;99.90;;;;;;5089472;27;39557;-75
2024/03/28 09:48:44;;;;;;;10.93;2.30;;;9.00;99.90;;;;;;5098036;27;38202;-74
2024/03/28 09:51:11;;;;;;;8.00;2.43;;;8.90;99.90;;;;;;5094441;27;38148;-75
2024/03/28 09:53:38;;;;;;;5.87;2.37;;;8.90;99.90;;;;;;5088700;27;37467;-75
2024/03/28 09:56:05;;;;;;;5.07;1.83;;;9.00;99.90;;;;;;5087621;27;39268;-75
2024/03/28 09:58:31;;;;;;;8.20;1.77;;;8.90;99.90;;;;;;5089430;27;38599;-75
2024/03/28 10:00:57;;;;;;;9.60;1.80;;;8.80;99.90;;;;;;5090263;27;38347;-75
2024/03/28 10:03:35;;;;;;;7.17;1.93;;;8.80;99.90;;;;;;5098807;27;37107;-75
2024/03/28 10:06:01;;;;;;;11.47;1.73;;;8.90;99.90;;;;;;5085184;28;37898;-75
2024/03/28 10:08:28;;;;;;;12.87;1.70;;;9.00;90.00;;;;;;5091098;28;38011;-75
2024/03/28 10:10:54;;;;;;;6.90;1.53;;;9.10;90.90;;;;;;5089377;27;37694;-75
2024/03/28 10:13:38;;;;;;;7.83;1.57;;;9.30;97.70;;;;;;5094029;27;36611;-76
2024/03/28 10:16:06;;;;;;;10.37;1.40;;;9.50;66.10;;;;;;5081713;27;38329;-75
2024/03/28 10:18:33;;;;;;;10.27;1.70;;;9.60;58.50;;;;;;5089261;28;38487;-76
2024/03/28 10:21:02;;;;;;;15.37;1.70;;;9.60;24.50;;;;;;5086762;27;36387;-76
2024/03/28 10:23:31;;;;;;;7.13;1.07;;;9.60;17.40;;;;;;5091809;27;48766;-76
2024/03/28 10:26:01;;;;;;;6.93;1.40;;;9.60;23.10;;;;;;5084516;27;37549;-75
2024/03/28 10:28:29;;;;;;;12.77;1.63;;;9.60;27.70;;;;;;5080615;27;49521;-75
2024/03/28 10:30:57;;;;;;;8.20;1.58;;;9.70;22.50;;;;;;5079547;27;37861;-75
2024/03/28 10:33:24;;;;;;;10.40;1.30;;;9.80;14.80;;;;;;5078076;27;37850;-75
2024/03/28 10:36:00;;;;;;;8.20;1.13;;;9.70;1.00;;;;;;5082991;27;38708;-75
2024/03/28 10:38:26;;;;;;;6.72;1.92;;;9.80;5.40;;;;;;5072899;28;37463;-76
2024/03/28 10:41:00;;;;;;;14.93;2.30;;;9.80;1.00;;;;;;5080256;28;37335;-76
2024/03/28 10:43:27;;;;;;;9.95;1.80;;;10.00;1.00;;;;;;5079620;27;37220;-76
2024/03/28 10:46:05;;;;;;;9.27;1.58;;;10.00;1.00;;;;;;5086984;27;38599;-76
2024/03/28 10:48:32;;;;;;;6.78;1.13;;;10.20;1.00;;;;;;5083213;27;48865;-76
2024/03/28 10:51:17;;;;;;;4.53;0.93;;;10.30;1.00;;;;;;5104239;27;38406;-76
2024/03/28 10:53:53;;;;;;;4.68;0.70;;;10.40;1.00;;;;;;5103084;28;47002;-76
2024/03/28 10:56:23;;;;;;;7.20;1.40;;;10.50;1.00;;;;;;5112339;27;39658;-75
2024/03/28 10:58:51;;;;;;;6.70;1.48;;;10.60;1.00;;;;;;5096047;27;37985;-75
2024/03/28 11:01:18;;;;;;;8.13;1.80;;;10.50;1.00;;;;;;5093324;27;37381;-76
2024/03/28 11:03:46;;;;;;;6.20;1.02;;;10.40;1.00;;;;;;5089353;28;37820;-76
2024/03/28 11:06:14;;;;;;;6.78;1.08;;;10.50;1.00;;;;;;5092105;27;39053;-77
2024/03/28 11:08:41;;;;;;;6.50;1.20;;;10.50;1.00;;;;;;5091837;27;39278;-76
2024/03/28 11:11:08;;;;;;;4.18;1.15;;;10.60;1.00;;;;;;5096125;27;39143;-76
2024/03/28 11:13:34;;;;;;;5.38;1.58;;;10.70;1.00;;;;;;5097532;27;37836;-76
2024/03/28 11:16:05;;;;;;;3.88;1.27;;;10.70;1.00;;;;;;5104484;28;39400;-76
2024/03/28 11:18:32;;;;;;;2.60;0.82;;;10.60;1.00;;;;;;5086665;28;46961;-76
2024/03/28 11:20:59;;;;;;;5.47;1.10;;;10.60;1.00;;;;;;5088549;28;37428;-76
2024/03/28 11:23:26;;;;;;;6.55;0.90;;;10.70;1.00;;;;;;5079590;27;37019;-76
2024/03/28 11:26:03;;;;;;;5.22;0.93;;;10.90;1.00;;;;;;5097489;27;39893;-77
2024/03/28 11:28:31;;;;;;;5.88;1.10;;;10.80;1.00;;;;;;5104668;27;47104;-77
2024/03/28 11:30:57;;;;;;;5.70;1.10;;;11.10;1.00;;;;;;5101018;27;38192;-76
2024/03/28 11:33:31;;;;;;;3.90;0.88;;;11.20;1.00;;;;;;5090254;27;38080;-77
2024/03/28 11:36:02;;;;;;;2.72;1.08;;;11.40;1.00;;;;;;5096172;28;38879;-76
2024/03/28 11:38:28;;;;;;;4.05;0.70;;;11.60;1.00;;;;;;5082800;28;46855;-76
2024/03/28 11:40:55;;;;;;;3.13;1.08;;;11.60;1.00;;;;;;5090749;28;38103;-76
2024/03/28 11:43:24;;;;;;;6.38;1.10;;;11.80;1.00;;;;;;5090082;27;37981;-76
2024/03/28 11:45:55;;;;;;;2.50;0.90;;;11.60;99.90;;;;;;5092229;28;37270;-76
2024/03/28 11:48:41;;;;;;;3.45;0.90;;;11.60;1.00;;;;;;5091210;27;38392;-76
2024/03/28 11:51:07;;;;;;;4.80;1.08;;;11.70;99.90;;;;;;5093818;27;37602;-75
2024/03/28 11:53:42;;;;;;;2.60;1.10;;;11.70;99.90;;;;;;5089168;28;36713;-75
2024/03/28 11:56:13;;;;;;;3.08;1.00;;;11.90;99.90;;;;;;5087418;27;36969;-75
2024/03/28 11:58:39;;;;;;;5.55;1.27;;;12.40;1.00;;;;;;5079341;28;36729;-76
2024/03/28 12:01:06;;;;;;;3.95;1.17;;;12.40;1.00;;;;;;5079068;27;37881;-76
2024/03/28 12:03:32;;;;;;;3.63;0.98;;;12.50;41.00;;;;;;5088095;27;36978;-76
2024/03/28 12:05:59;;;;;;;4.95;0.85;;;12.50;1.00;;;;;;5111028;27;40247;-76
2024/03/28 12:08:30;;;;;;;3.28;0.80;;;12.40;1.00;;;;;;5082556;28;38663;-76
2024/03/28 12:11:04;;;;;;;1.60;0.75;;;12.00;1.00;;;;;;5083537;28;36678;-76
2024/03/28 12:13:32;;;;;;;1.35;0.60;;;12.20;1.00;;;;;;5089337;27;48797;-76
2024/03/28 12:16:00;;;;;;;1.55;0.43;;;12.50;1.00;;;;;;5085671;27;38757;-75
2024/03/28 12:18:27;;;;;;;4.30;0.60;;;12.50;99.90;;;;;;5084980;28;36893;-76
2024/03/28 12:21:06;;;;;;;5.97;0.75;;;12.70;99.90;;;;;;5088427;27;38334;-76
2024/03/28 12:23:33;;;;;;;2.22;0.60;;;12.80;1.00;;;;;;5081238;28;47205;-75
2024/03/28 12:26:01;;;;;;;1.67;0.47;;;12.70;1.00;;;;;;5084055;27;40162;-76
2024/03/28 12:28:29;;;;;;;1.05;0.38;;;12.20;1.00;;;;;;5082476;27;48501;-75
2024/03/28 12:30:56;;;;;;;0.95;0.38;;;12.00;99.90;;;;;;5085770;27;37566;-76
2024/03/28 12:33:24;;;;;;;1.77;0.60;;;11.90;99.90;;;;;;5093326;27;37347;-76
2024/03/28 12:35:55;;;;;;;2.78;0.50;;;12.20;99.90;;;;;;5093144;28;40242;-76
2024/03/28 12:38:22;;;;;;;2.10;0.60;;;12.50;1.00;;;;;;5097571;27;38918;-76
2024/03/28 12:40:53;;;;;;;2.13;0.60;;;12.80;1.00;;;;;;5094132;27;36483;-76
2024/03/28 12:43:21;;;;;;;3.95;0.75;;;13.00;1.00;;;;;;5085565;27;36221;-76
2024/03/28 12:46:03;;;;;;;2.95;0.38;;;12.80;99.90;;;;;;5090513;27;38466;-75
2024/03/28 12:48:29;;;;;;;0.98;0.47;;;13.00;99.90;;;;;;5088193;27;48795;-76
2024/03/28 12:50:55;;;;;;;4.05;0.30;;;13.00;1.00;;;;;;5102314;27;38496;-77
2024/03/28 12:53:21;;;;;;;1.10;0.50;;;13.00;1.00;;;;;;5085021;27;36953;-76
2024/03/28 12:55:50;;;;;;;1.52;0.43;;;12.80;99.90;;;;;;5094267;28;39057;-75
2024/03/28 12:58:16;;;;;;;1.58;0.63;;;12.50;1.00;;;;;;5102307;27;37552;-76
2024/03/28 13:00:42;;;;;;;1.52;0.52;;;12.60;1.00;;;;;;5094955;27;38735;-77
2024/03/28 13:03:09;;;;;;;1.20;0.70;;;12.60;1.00;;;;;;5087450;27;38508;-77
2024/03/28 13:05:35;;;;;;;2.83;0.40;;;12.50;57.60;;;;;;5087091;27;38677;-77
2024/03/28 13:08:01;;;;;;;0.90;0.30;;;12.60;1.00;;;;;;5090540;27;38215;-76
2024/03/28 13:10:28;;;;;;;1.73;0.65;;;12.20;1.00;;;;;;5101179;27;48517;-76
2024/03/28 13:12:54;;;;;;;2.28;0.52;;;12.50;7.10;;;;;;5086773;27;37095;-76
2024/03/28 13:15:20;;;;;;;5.47;0.50;;;13.10;1.00;;;;;;5097026;27;39997;-76
2024/03/28 13:17:46;;;;;;;1.30;0.40;;;13.10;1.00;;;;;;5098379;27;38001;-76
2024/03/28 13:20:15;;;;;;;1.42;0.30;;;12.90;99.90;;;;;;5081770;27;37620;-76
2024/03/28 13:22:41;;;;;;;1.80;0.30;;;13.10;1.00;;;;;;5098318;27;39056;-76
2024/03/28 13:25:07;;;;;;;1.88;0.25;;;13.10;1.00;;;;;;5103049;27;38601;-77
2024/03/28 13:27:34;;;;;;;1.83;0.40;;;12.80;1.00;;;;;;5101484;28;38805;-76
2024/03/28 13:30:00;;;;;;;2.80;0.70;;;12.50;99.90;;;;;;5091391;27;37601;-77
2024/03/28 13:32:26;;;;;;;2.80;0.55;;;12.50;99.90;;;;;;5082997;27;37045;-75
2024/03/28 13:34:52;;;;;;;1.90;0.52;;;12.60;1.00;;;;;;5087097;27;39002;-76
2024/03/28 13:37:18;;;;;;;2.15;0.50;;;12.40;99.90;;;;;;5082953;27;37958;-78
2024/03/28 13:39:44;;;;;;;3.22;0.60;;;12.40;99.90;;;;;;5077526;28;37843;-76
2024/03/28 13:42:10;;;;;;;3.03;0.57;;;12.20;1.00;;;;;;5083971;27;37887;-76
2024/03/28 13:44:36;;;;;;;6.55;0.93;;;12.00;99.90;;;;;;5081985;27;38819;-77
2024/03/28 13:47:03;;;;;;;3.80;0.68;;;12.00;1.00;;;;;;5083519;27;38977;-76
2024/03/28 13:49:32;;;;;;;3.53;0.70;;;12.00;99.90;;;;;;5087002;28;39119;-77